sensor_id;sensor_type;location;lat;lon;timestamp;P1;durP1;ratioP1;P2;durP2;ratioP2
595;SDS011;19946;49.306;11.350;2024-02-14T00:02:25;116.00;;;111.80;;
595;SDS011;19946;49.306;11.350;2024-02-14T00:05:32;118.33;;;114.07;;
595;SDS011;19946;49.306;11.350;2024-02-14T00:08:34;120.00;;;115.60;;
595;SDS011;19946;49.306;11.350;2024-02-14T00:11:36;121.13;;;116.83;;
595;SDS011;19946;49.306;11.350;2024-02-14T00:14:39;118.90;;;114.40;;
595;SDS011;19946;49.306;11.350;2024-02-14T00:17:45;117.20;;;112.80;;
595;SDS011;19946;49.306;11.350;2024-02-14T00:20:47;116.70;;;112.60;;
595;SDS011;19946;49.306;11.350;2024-02-14T00:47:23;91.20;;;87.87;;
595;SDS011;19946;49.306;11.350;2024-02-14T00:50:23;88.73;;;85.23;;
595;SDS011;19946;49.306;11.350;2024-02-14T02:25:21;125.73;;;121.33;;
595;SDS011;19946;49.306;11.350;2024-02-14T02:35:17;108.03;;;104.23;;
595;SDS011;19946;49.306;11.350;2024-02-14T02:38:22;103.30;;;99.60;;
595;SDS011;19946;49.306;11.350;2024-02-14T02:41:24;98.90;;;95.40;;
595;SDS011;19946;49.306;11.350;2024-02-14T02:44:25;91.43;;;88.23;;
595;SDS011;19946;49.306;11.350;2024-02-14T02:47:29;87.40;;;84.27;;
595;SDS011;19946;49.306;11.350;2024-02-14T02:53:46;78.77;;;76.17;;
595;SDS011;19946;49.306;11.350;2024-02-14T02:56:47;80.63;;;78.00;;
595;SDS011;19946;49.306;11.350;2024-02-14T02:59:47;84.10;;;81.30;;
595;SDS011;19946;49.306;11.350;2024-02-14T03:02:48;76.13;;;73.63;;
595;SDS011;19946;49.306;11.350;2024-02-14T03:05:48;73.67;;;71.27;;
595;SDS011;19946;49.306;11.350;2024-02-14T03:08:49;66.40;;;64.30;;
595;SDS011;19946;49.306;11.350;2024-02-14T03:11:49;63.20;;;61.20;;
595;SDS011;19946;49.306;11.350;2024-02-14T03:14:50;63.30;;;61.30;;
595;SDS011;19946;49.306;11.350;2024-02-14T03:17:50;64.23;;;62.23;;
595;SDS011;19946;49.306;11.350;2024-02-14T03:20:50;64.50;;;62.50;;
595;SDS011;19946;49.306;11.350;2024-02-14T03:23:53;54.87;;;53.23;;
595;SDS011;19946;49.306;11.350;2024-02-14T03:26:54;49.43;;;48.03;;
595;SDS011;19946;49.306;11.350;2024-02-14T03:29:54;50.90;;;49.40;;
595;SDS011;19946;49.306;11.350;2024-02-14T03:36:12;49.27;;;47.80;;
595;SDS011;19946;49.306;11.350;2024-02-14T03:39:21;44.70;;;43.40;;
595;SDS011;19946;49.306;11.350;2024-02-14T03:42:22;46.63;;;45.30;;
595;SDS011;19946;49.306;11.350;2024-02-14T03:45:22;38.70;;;37.60;;
595;SDS011;19946;49.306;11.350;2024-02-14T03:58:46;31.90;;;31.10;;
595;SDS011;19946;49.306;11.350;2024-02-14T04:01:51;33.13;;;32.23;;
595;SDS011;19946;49.306;11.350;2024-02-14T04:04:55;33.50;;;32.60;;
595;SDS011;19946;49.306;11.350;2024-02-14T04:07:56;28.97;;;28.17;;
595;SDS011;19946;49.306;11.350;2024-02-14T04:10:57;36.00;;;35.00;;
595;SDS011;19946;49.306;11.350;2024-02-14T04:13:58;27.90;;;27.20;;
595;SDS011;19946;49.306;11.350;2024-02-14T04:17:01;29.60;;;28.80;;
595;SDS011;19946;49.306;11.350;2024-02-14T04:20:08;30.40;;;29.50;;
595;SDS011;19946;49.306;11.350;2024-02-14T04:23:09;30.77;;;29.97;;
595;SDS011;19946;49.306;11.350;2024-02-14T04:26:10;31.23;;;30.40;;
595;SDS011;19946;49.306;11.350;2024-02-14T04:29:19;32.67;;;31.77;;
595;SDS011;19946;49.306;11.350;2024-02-14T04:32:20;36.53;;;35.53;;
595;SDS011;19946;49.306;11.350;2024-02-14T04:35:21;40.73;;;39.43;;
595;SDS011;19946;49.306;11.350;2024-02-14T04:38:22;35.50;;;34.50;;
595;SDS011;19946;49.306;11.350;2024-02-14T04:41:23;39.47;;;38.37;;
595;SDS011;19946;49.306;11.350;2024-02-14T04:47:40;40.73;;;39.63;;
595;SDS011;19946;49.306;11.350;2024-02-14T04:50:44;43.33;;;42.13;;
595;SDS011;19946;49.306;11.350;2024-02-14T04:53:45;44.50;;;43.20;;
595;SDS011;19946;49.306;11.350;2024-02-14T04:56:46;40.50;;;39.40;;
595;SDS011;19946;49.306;11.350;2024-02-14T04:59:50;38.50;;;37.40;;
595;SDS011;19946;49.306;11.350;2024-02-14T05:02:51;40.27;;;39.17;;
595;SDS011;19946;49.306;11.350;2024-02-14T05:05:52;38.37;;;37.23;;
595;SDS011;19946;49.306;11.350;2024-02-14T05:08:53;40.40;;;39.30;;
595;SDS011;19946;49.306;11.350;2024-02-14T05:11:54;40.63;;;39.53;;
595;SDS011;19946;49.306;11.350;2024-02-14T05:14:59;41.40;;;40.20;;
595;SDS011;19946;49.306;11.350;2024-02-14T05:18:01;40.73;;;39.60;;
595;SDS011;19946;49.306;11.350;2024-02-14T05:21:04;42.90;;;41.60;;
595;SDS011;19946;49.306;11.350;2024-02-14T05:24:09;44.20;;;42.90;;
595;SDS011;19946;49.306;11.350;2024-02-14T05:37:03;39.80;;;38.70;;
595;SDS011;19946;49.306;11.350;2024-02-14T05:40:06;36.93;;;35.93;;
595;SDS011;19946;49.306;11.350;2024-02-14T05:43:07;37.00;;;35.90;;
595;SDS011;19946;49.306;11.350;2024-02-14T05:46:10;29.97;;;29.17;;
595;SDS011;19946;49.306;11.350;2024-02-14T05:49:14;32.20;;;31.30;;
595;SDS011;19946;49.306;11.350;2024-02-14T05:52:18;30.77;;;29.80;;
595;SDS011;19946;49.306;11.350;2024-02-14T05:55:19;27.93;;;26.23;;
595;SDS011;19946;49.306;11.350;2024-02-14T05:58:19;23.53;;;22.93;;
595;SDS011;19946;49.306;11.350;2024-02-14T06:01:20;28.00;;;27.27;;
595;SDS011;19946;49.306;11.350;2024-02-14T06:04:22;27.10;;;26.40;;
595;SDS011;19946;49.306;11.350;2024-02-14T06:07:23;23.00;;;22.40;;
595;SDS011;19946;49.306;11.350;2024-02-14T06:16:54;28.87;;;27.40;;
595;SDS011;19946;49.306;11.350;2024-02-14T06:19:55;25.80;;;25.17;;
595;SDS011;19946;49.306;11.350;2024-02-14T06:22:59;20.20;;;19.70;;
595;SDS011;19946;49.306;11.350;2024-02-14T06:25:59;21.43;;;20.93;;
595;SDS011;19946;49.306;11.350;2024-02-14T06:32:12;22.77;;;22.17;;
595;SDS011;19946;49.306;11.350;2024-02-14T06:35:14;22.13;;;21.43;;
595;SDS011;19946;49.306;11.350;2024-02-14T06:38:18;24.77;;;24.17;;
595;SDS011;19946;49.306;11.350;2024-02-14T06:41:19;21.80;;;21.30;;
595;SDS011;19946;49.306;11.350;2024-02-14T06:44:24;21.10;;;20.60;;
595;SDS011;19946;49.306;11.350;2024-02-14T06:50:48;15.87;;;15.57;;
595;SDS011;19946;49.306;11.350;2024-02-14T06:53:49;16.70;;;16.30;;
595;SDS011;19946;49.306;11.350;2024-02-14T06:56:50;15.20;;;14.90;;
595;SDS011;19946;49.306;11.350;2024-02-14T06:59:51;16.70;;;16.30;;
595;SDS011;19946;49.306;11.350;2024-02-14T07:02:57;18.40;;;18.00;;
595;SDS011;19946;49.306;11.350;2024-02-14T07:05:57;22.43;;;21.87;;
595;SDS011;19946;49.306;11.350;2024-02-14T07:09:01;20.30;;;19.80;;
595;SDS011;19946;49.306;11.350;2024-02-14T07:12:02;22.20;;;21.40;;
595;SDS011;19946;49.306;11.350;2024-02-14T07:15:03;23.83;;;23.23;;
595;SDS011;19946;49.306;11.350;2024-02-14T07:18:05;26.10;;;25.40;;
595;SDS011;19946;49.306;11.350;2024-02-14T07:21:11;34.00;;;33.10;;
595;SDS011;19946;49.306;11.350;2024-02-14T07:24:12;34.10;;;33.20;;
595;SDS011;19946;49.306;11.350;2024-02-14T07:27:23;70.90;;;50.20;;
595;SDS011;19946;49.306;11.350;2024-02-14T07:30:24;36.57;;;35.57;;
595;SDS011;19946;49.306;11.350;2024-02-14T07:33:30;37.90;;;36.80;;
595;SDS011;19946;49.306;11.350;2024-02-14T07:36:36;61.37;;;48.80;;
595;SDS011;19946;49.306;11.350;2024-02-14T07:39:41;36.13;;;35.13;;
595;SDS011;19946;49.306;11.350;2024-02-14T07:42:42;39.80;;;38.70;;
595;SDS011;19946;49.306;11.350;2024-02-14T07:46:01;39.30;;;38.20;;
595;SDS011;19946;49.306;11.350;2024-02-14T07:49:10;31.20;;;30.40;;
595;SDS011;19946;49.306;11.350;2024-02-14T07:52:14;30.10;;;29.30;;
595;SDS011;19946;49.306;11.350;2024-02-14T07:55:14;35.33;;;32.83;;
595;SDS011;19946;49.306;11.350;2024-02-14T07:58:18;28.63;;;27.43;;
595;SDS011;19946;49.306;11.350;2024-02-14T08:01:19;20.80;;;20.30;;
595;SDS011;19946;49.306;11.350;2024-02-14T08:04:20;21.60;;;21.00;;
595;SDS011;19946;49.306;11.350;2024-02-14T08:07:20;19.90;;;19.40;;
595;SDS011;19946;49.306;11.350;2024-02-14T08:10:21;23.80;;;22.93;;
595;SDS011;19946;49.306;11.350;2024-02-14T08:13:25;21.73;;;21.17;;
595;SDS011;19946;49.306;11.350;2024-02-14T08:16:27;24.83;;;24.13;;
595;SDS011;19946;49.306;11.350;2024-02-14T08:19:28;26.37;;;25.67;;
595;SDS011;19946;49.306;11.350;2024-02-14T08:22:29;20.50;;;19.90;;
595;SDS011;19946;49.306;11.350;2024-02-14T08:25:30;30.60;;;29.70;;
595;SDS011;19946;49.306;11.350;2024-02-14T08:28:33;31.83;;;30.93;;
595;SDS011;19946;49.306;11.350;2024-02-14T08:31:36;39.77;;;38.57;;
595;SDS011;19946;49.306;11.350;2024-02-14T08:34:42;39.60;;;38.50;;
595;SDS011;19946;49.306;11.350;2024-02-14T08:38:19;48.87;;;46.23;;
595;SDS011;19946;49.306;11.350;2024-02-14T08:41:43;40.10;;;38.90;;
595;SDS011;19946;49.306;11.350;2024-02-14T08:44:51;32.20;;;31.30;;
595;SDS011;19946;49.306;11.350;2024-02-14T08:48:23;33.00;;;32.00;;
595;SDS011;19946;49.306;11.350;2024-02-14T08:51:28;35.10;;;34.10;;
595;SDS011;19946;49.306;11.350;2024-02-14T08:54:46;29.90;;;29.00;;
595;SDS011;19946;49.306;11.350;2024-02-14T08:57:53;29.23;;;28.30;;
595;SDS011;19946;49.306;11.350;2024-02-14T09:00:58;28.30;;;27.20;;
595;SDS011;19946;49.306;11.350;2024-02-14T09:04:34;24.37;;;23.67;;
595;SDS011;19946;49.306;11.350;2024-02-14T09:08:12;21.90;;;21.30;;
595;SDS011;19946;49.306;11.350;2024-02-14T09:17:04;25.73;;;25.03;;
595;SDS011;19946;49.306;11.350;2024-02-14T09:20:40;37.33;;;36.23;;
595;SDS011;19946;49.306;11.350;2024-02-14T09:24:07;41.90;;;40.27;;
595;SDS011;19946;49.306;11.350;2024-02-14T09:27:17;38.80;;;37.70;;
595;SDS011;19946;49.306;11.350;2024-02-14T09:30:55;37.50;;;31.87;;
595;SDS011;19946;49.306;11.350;2024-02-14T09:33:55;22.03;;;21.40;;
595;SDS011;19946;49.306;11.350;2024-02-14T09:36:58;18.47;;;17.97;;
595;SDS011;19946;49.306;11.350;2024-02-14T09:39:58;15.80;;;15.30;;
595;SDS011;19946;49.306;11.350;2024-02-14T09:46:06;23.63;;;23.03;;
595;SDS011;19946;49.306;11.350;2024-02-14T09:49:07;23.57;;;22.90;;
595;SDS011;19946;49.306;11.350;2024-02-14T09:59:08;25.63;;;24.83;;
595;SDS011;19946;49.306;11.350;2024-02-14T10:02:11;24.50;;;22.90;;
595;SDS011;19946;49.306;11.350;2024-02-14T10:05:12;15.17;;;14.30;;
595;SDS011;19946;49.306;11.350;2024-02-14T10:08:14;19.83;;;19.27;;
595;SDS011;19946;49.306;11.350;2024-02-14T10:11:15;19.60;;;19.10;;
595;SDS011;19946;49.306;11.350;2024-02-14T10:14:18;22.67;;;22.07;;
595;SDS011;19946;49.306;11.350;2024-02-14T10:20:56;21.87;;;21.27;;
595;SDS011;19946;49.306;11.350;2024-02-14T10:23:59;18.07;;;17.57;;
595;SDS011;19946;49.306;11.350;2024-02-14T10:27:01;21.20;;;20.70;;
595;SDS011;19946;49.306;11.350;2024-02-14T10:30:09;13.67;;;13.37;;
595;SDS011;19946;49.306;11.350;2024-02-14T10:33:10;17.30;;;16.90;;
595;SDS011;19946;49.306;11.350;2024-02-14T10:36:12;19.00;;;18.20;;
595;SDS011;19946;49.306;11.350;2024-02-14T10:39:16;14.20;;;13.90;;
595;SDS011;19946;49.306;11.350;2024-02-14T10:42:19;15.20;;;14.90;;
595;SDS011;19946;49.306;11.350;2024-02-14T10:45:20;12.00;;;11.70;;
595;SDS011;19946;49.306;11.350;2024-02-14T10:48:22;20.20;;;19.70;;
595;SDS011;19946;49.306;11.350;2024-02-14T10:51:26;17.37;;;16.87;;
595;SDS011;19946;49.306;11.350;2024-02-14T10:54:35;18.00;;;17.50;;
595;SDS011;19946;49.306;11.350;2024-02-14T10:57:36;15.10;;;14.60;;
595;SDS011;19946;49.306;11.350;2024-02-14T11:04:11;11.40;;;11.20;;
595;SDS011;19946;49.306;11.350;2024-02-14T11:07:16;11.93;;;11.63;;
595;SDS011;19946;49.306;11.350;2024-02-14T11:10:17;25.77;;;15.70;;
595;SDS011;19946;49.306;11.350;2024-02-14T11:13:18;8.97;;;8.77;;
595;SDS011;19946;49.306;11.350;2024-02-14T11:16:25;10.63;;;10.40;;
595;SDS011;19946;49.306;11.350;2024-02-14T11:19:31;11.37;;;10.93;;
595;SDS011;19946;49.306;11.350;2024-02-14T11:25:51;49.37;;;15.93;;
595;SDS011;19946;49.306;11.350;2024-02-14T11:28:59;9.80;;;9.50;;
595;SDS011;19946;49.306;11.350;2024-02-14T11:35:18;11.37;;;8.63;;
595;SDS011;19946;49.306;11.350;2024-02-14T11:38:21;6.40;;;6.30;;
595;SDS011;19946;49.306;11.350;2024-02-14T11:48:18;5.70;;;5.70;;
595;SDS011;19946;49.306;11.350;2024-02-14T11:51:24;6.00;;;5.90;;
595;SDS011;19946;49.306;11.350;2024-02-14T11:54:26;6.60;;;6.50;;
595;SDS011;19946;49.306;11.350;2024-02-14T11:57:27;5.60;;;5.60;;
595;SDS011;19946;49.306;11.350;2024-02-14T12:00:27;6.50;;;6.40;;
595;SDS011;19946;49.306;11.350;2024-02-14T12:03:28;5.10;;;5.10;;
595;SDS011;19946;49.306;11.350;2024-02-14T12:06:29;5.70;;;5.70;;
595;SDS011;19946;49.306;11.350;2024-02-14T12:13:10;6.57;;;6.47;;
595;SDS011;19946;49.306;11.350;2024-02-14T12:16:14;6.00;;;5.90;;
595;SDS011;19946;49.306;11.350;2024-02-14T12:19:16;5.67;;;5.67;;
595;SDS011;19946;49.306;11.350;2024-02-14T12:22:16;6.13;;;6.03;;
595;SDS011;19946;49.306;11.350;2024-02-14T15:49:19;5.00;;;4.90;;
595;SDS011;19946;49.306;11.350;2024-02-14T16:31:00;37.80;;;13.70;;
595;SDS011;19946;49.306;11.350;2024-02-14T16:34:00;6.80;;;6.60;;
595;SDS011;19946;49.306;11.350;2024-02-14T16:37:00;6.90;;;6.63;;
595;SDS011;19946;49.306;11.350;2024-02-14T16:40:01;6.40;;;6.30;;
595;SDS011;19946;49.306;11.350;2024-02-14T16:43:01;8.37;;;8.07;;
595;SDS011;19946;49.306;11.350;2024-02-14T16:46:01;6.20;;;6.10;;
595;SDS011;19946;49.306;11.350;2024-02-14T16:49:02;5.77;;;5.67;;
595;SDS011;19946;49.306;11.350;2024-02-14T16:52:03;6.37;;;6.23;;
595;SDS011;19946;49.306;11.350;2024-02-14T16:55:04;6.70;;;6.40;;
595;SDS011;19946;49.306;11.350;2024-02-14T16:58:04;7.43;;;7.13;;
595;SDS011;19946;49.306;11.350;2024-02-14T17:01:05;6.20;;;6.00;;
595;SDS011;19946;49.306;11.350;2024-02-14T17:04:08;6.23;;;6.03;;
595;SDS011;19946;49.306;11.350;2024-02-14T17:07:08;7.90;;;7.50;;
595;SDS011;19946;49.306;11.350;2024-02-14T17:10:10;6.80;;;6.50;;
595;SDS011;19946;49.306;11.350;2024-02-14T17:13:11;7.37;;;7.07;;
595;SDS011;19946;49.306;11.350;2024-02-14T17:16:12;8.47;;;7.67;;
595;SDS011;19946;49.306;11.350;2024-02-14T17:19:13;10.97;;;9.70;;
595;SDS011;19946;49.306;11.350;2024-02-14T17:22:13;10.90;;;10.30;;
595;SDS011;19946;49.306;11.350;2024-02-14T17:25:14;10.37;;;9.77;;
595;SDS011;19946;49.306;11.350;2024-02-14T17:28:15;7.53;;;7.23;;
595;SDS011;19946;49.306;11.350;2024-02-14T17:31:15;10.57;;;9.90;;
595;SDS011;19946;49.306;11.350;2024-02-14T17:34:15;8.00;;;7.70;;
595;SDS011;19946;49.306;11.350;2024-02-14T17:37:16;10.10;;;9.43;;
595;SDS011;19946;49.306;11.350;2024-02-14T17:40:17;11.80;;;11.20;;
595;SDS011;19946;49.306;11.350;2024-02-14T17:43:17;12.13;;;11.73;;
595;SDS011;19946;49.306;11.350;2024-02-14T17:46:18;10.80;;;10.30;;
595;SDS011;19946;49.306;11.350;2024-02-14T17:49:19;11.17;;;10.80;;
595;SDS011;19946;49.306;11.350;2024-02-14T17:52:20;12.13;;;11.73;;
595;SDS011;19946;49.306;11.350;2024-02-14T17:55:20;14.13;;;13.60;;
595;SDS011;19946;49.306;11.350;2024-02-14T17:58:21;15.07;;;14.37;;
595;SDS011;19946;49.306;11.350;2024-02-14T18:01:21;16.67;;;16.10;;
595;SDS011;19946;49.306;11.350;2024-02-14T18:04:23;20.57;;;19.73;;
595;SDS011;19946;49.306;11.350;2024-02-14T18:07:24;24.10;;;23.30;;
595;SDS011;19946;49.306;11.350;2024-02-14T18:10:25;26.17;;;25.03;;
595;SDS011;19946;49.306;11.350;2024-02-14T18:13:25;34.57;;;33.07;;
595;SDS011;19946;49.306;11.350;2024-02-14T18:16:25;43.60;;;41.93;;
595;SDS011;19946;49.306;11.350;2024-02-14T18:19:27;45.17;;;43.33;;
595;SDS011;19946;49.306;11.350;2024-02-14T18:22:27;50.17;;;48.53;;
595;SDS011;19946;49.306;11.350;2024-02-14T18:25:27;53.27;;;51.47;;
595;SDS011;19946;49.306;11.350;2024-02-14T18:28:29;54.47;;;52.40;;
595;SDS011;19946;49.306;11.350;2024-02-14T18:31:33;56.33;;;54.43;;
595;SDS011;19946;49.306;11.350;2024-02-14T18:34:34;57.97;;;55.97;;
595;SDS011;19946;49.306;11.350;2024-02-14T18:37:34;47.60;;;45.90;;
595;SDS011;19946;49.306;11.350;2024-02-14T18:40:35;49.80;;;48.20;;
595;SDS011;19946;49.306;11.350;2024-02-14T18:43:39;50.40;;;48.70;;
595;SDS011;19946;49.306;11.350;2024-02-14T18:46:39;46.17;;;44.77;;
595;SDS011;19946;49.306;11.350;2024-02-14T18:49:45;43.60;;;42.20;;
595;SDS011;19946;49.306;11.350;2024-02-14T18:52:45;45.63;;;43.83;;
595;SDS011;19946;49.306;11.350;2024-02-14T18:55:46;38.60;;;37.30;;
595;SDS011;19946;49.306;11.350;2024-02-14T18:58:46;34.03;;;32.80;;
595;SDS011;19946;49.306;11.350;2024-02-14T19:01:46;27.93;;;27.03;;
595;SDS011;19946;49.306;11.350;2024-02-14T19:04:47;28.70;;;27.80;;
595;SDS011;19946;49.306;11.350;2024-02-14T19:07:47;29.80;;;28.80;;
595;SDS011;19946;49.306;11.350;2024-02-14T19:10:47;30.70;;;29.60;;
595;SDS011;19946;49.306;11.350;2024-02-14T19:13:48;29.33;;;28.33;;
595;SDS011;19946;49.306;11.350;2024-02-14T19:16:48;28.87;;;27.97;;
595;SDS011;19946;49.306;11.350;2024-02-14T19:19:48;29.93;;;28.87;;
595;SDS011;19946;49.306;11.350;2024-02-14T19:22:49;29.83;;;28.87;;
595;SDS011;19946;49.306;11.350;2024-02-14T19:25:49;32.93;;;31.80;;
595;SDS011;19946;49.306;11.350;2024-02-14T19:28:54;34.90;;;33.80;;
595;SDS011;19946;49.306;11.350;2024-02-14T19:31:54;37.50;;;36.30;;
595;SDS011;19946;49.306;11.350;2024-02-14T19:34:55;42.00;;;40.57;;
595;SDS011;19946;49.306;11.350;2024-02-14T19:37:55;42.17;;;40.77;;
595;SDS011;19946;49.306;11.350;2024-02-14T19:40:55;44.47;;;42.87;;
595;SDS011;19946;49.306;11.350;2024-02-14T19:43:56;37.90;;;36.60;;
595;SDS011;19946;49.306;11.350;2024-02-14T19:46:56;41.93;;;40.47;;
595;SDS011;19946;49.306;11.350;2024-02-14T19:49:56;40.60;;;39.20;;
595;SDS011;19946;49.306;11.350;2024-02-14T19:52:58;44.37;;;42.87;;
595;SDS011;19946;49.306;11.350;2024-02-14T19:55:58;41.90;;;40.50;;
595;SDS011;19946;49.306;11.350;2024-02-14T19:58:59;44.43;;;42.93;;
595;SDS011;19946;49.306;11.350;2024-02-14T20:01:59;44.13;;;42.63;;
595;SDS011;19946;49.306;11.350;2024-02-14T20:04:59;44.90;;;43.40;;
595;SDS011;19946;49.306;11.350;2024-02-14T20:07:59;48.97;;;47.37;;
595;SDS011;19946;49.306;11.350;2024-02-14T20:11:00;41.43;;;39.93;;
595;SDS011;19946;49.306;11.350;2024-02-14T20:14:02;43.43;;;41.83;;
595;SDS011;19946;49.306;11.350;2024-02-14T20:17:02;44.33;;;42.73;;
595;SDS011;19946;49.306;11.350;2024-02-14T20:20:03;44.03;;;42.47;;
595;SDS011;19946;49.306;11.350;2024-02-14T20:23:07;43.67;;;42.10;;
595;SDS011;19946;49.306;11.350;2024-02-14T20:26:07;43.97;;;42.57;;
595;SDS011;19946;49.306;11.350;2024-02-14T20:29:10;45.83;;;44.33;;
595;SDS011;19946;49.306;11.350;2024-02-14T20:32:11;46.70;;;44.80;;
595;SDS011;19946;49.306;11.350;2024-02-14T20:35:11;44.60;;;42.90;;
595;SDS011;19946;49.306;11.350;2024-02-14T20:38:14;45.27;;;43.77;;
595;SDS011;19946;49.306;11.350;2024-02-14T20:41:15;45.80;;;44.30;;
595;SDS011;19946;49.306;11.350;2024-02-14T20:44:15;46.17;;;44.60;;
595;SDS011;19946;49.306;11.350;2024-02-14T20:47:17;46.80;;;44.90;;
595;SDS011;19946;49.306;11.350;2024-02-14T20:50:17;45.27;;;43.60;;
595;SDS011;19946;49.306;11.350;2024-02-14T20:53:18;46.00;;;44.27;;
595;SDS011;19946;49.306;11.350;2024-02-14T20:56:18;44.37;;;42.87;;
595;SDS011;19946;49.306;11.350;2024-02-14T20:59:19;46.97;;;45.37;;
595;SDS011;19946;49.306;11.350;2024-02-14T21:02:19;46.10;;;44.57;;
595;SDS011;19946;49.306;11.350;2024-02-14T21:05:19;44.30;;;42.80;;
595;SDS011;19946;49.306;11.350;2024-02-14T21:08:20;44.20;;;42.80;;
595;SDS011;19946;49.306;11.350;2024-02-14T21:11:20;44.23;;;42.83;;
595;SDS011;19946;49.306;11.350;2024-02-14T21:14:20;43.20;;;41.80;;
595;SDS011;19946;49.306;11.350;2024-02-14T21:17:21;46.03;;;44.53;;
595;SDS011;19946;49.306;11.350;2024-02-14T21:20:21;44.20;;;42.80;;
595;SDS011;19946;49.306;11.350;2024-02-14T21:23:22;41.33;;;40.03;;
595;SDS011;19946;49.306;11.350;2024-02-14T21:26:23;43.87;;;42.47;;
595;SDS011;19946;49.306;11.350;2024-02-14T21:29:23;45.00;;;43.57;;
595;SDS011;19946;49.306;11.350;2024-02-14T21:32:24;43.23;;;41.87;;
595;SDS011;19946;49.306;11.350;2024-02-14T21:35:25;46.70;;;45.20;;
595;SDS011;19946;49.306;11.350;2024-02-14T21:38:25;49.50;;;47.90;;
595;SDS011;19946;49.306;11.350;2024-02-14T21:41:27;49.70;;;47.90;;
595;SDS011;19946;49.306;11.350;2024-02-14T21:44:27;51.23;;;49.53;;
595;SDS011;19946;49.306;11.350;2024-02-14T21:47:30;50.73;;;49.03;;
595;SDS011;19946;49.306;11.350;2024-02-14T21:50:30;52.30;;;50.60;;
595;SDS011;19946;49.306;11.350;2024-02-14T22:36:38;46.03;;;44.63;;
595;SDS011;19946;49.306;11.350;2024-02-14T22:42:57;47.33;;;45.27;;
595;SDS011;19946;49.306;11.350;2024-02-14T23:05:40;46.80;;;45.07;;
595;SDS011;19946;49.306;11.350;2024-02-14T23:31:39;44.73;;;43.23;;
595;SDS011;19946;49.306;11.350;2024-02-14T23:51:04;44.60;;;43.10;;
595;SDS011;19946;49.306;11.350;2024-02-14T23:54:06;43.40;;;42.00;;
